sensor_id;sensor_type;location;lat;lon;timestamp;temperature;humidity
29207;DHT22;16247;50.840;4.382;2023-01-16T00:01:52;5.70;99.90
29207;DHT22;16247;50.840;4.382;2023-01-16T00:04:21;5.70;99.90
29207;DHT22;16247;50.840;4.382;2023-01-16T00:06:58;6.00;99.90
29207;DHT22;16247;50.840;4.382;2023-01-16T00:09:24;5.70;99.90
29207;DHT22;16247;50.840;4.382;2023-01-16T00:11:51;5.70;99.90
29207;DHT22;16247;50.840;4.382;2023-01-16T00:14:17;6.00;99.90
29207;DHT22;16247;50.840;4.382;2023-01-16T00:16:42;5.80;99.90
29207;DHT22;16247;50.840;4.382;2023-01-16T00:19:10;5.80;99.90
29207;DHT22;16247;50.840;4.382;2023-01-16T00:21:36;5.80;99.90
29207;DHT22;16247;50.840;4.382;2023-01-16T00:24:03;5.80;99.90
29207;DHT22;16247;50.840;4.382;2023-01-16T00:26:31;5.80;99.90
29207;DHT22;16247;50.840;4.382;2023-01-16T00:28:57;5.70;99.90
29207;DHT22;16247;50.840;4.382;2023-01-16T00:31:25;5.90;99.90
29207;DHT22;16247;50.840;4.382;2023-01-16T00:33:52;5.60;99.90
29207;DHT22;16247;50.840;4.382;2023-01-16T00:36:18;6.00;99.90
29207;DHT22;16247;50.840;4.382;2023-01-16T00:38:45;6.00;99.90
29207;DHT22;16247;50.840;4.382;2023-01-16T00:41:16;5.70;99.90
29207;DHT22;16247;50.840;4.382;2023-01-16T00:43:44;5.90;99.90
29207;DHT22;16247;50.840;4.382;2023-01-16T00:46:11;5.70;99.90
29207;DHT22;16247;50.840;4.382;2023-01-16T00:48:37;5.70;99.90
29207;DHT22;16247;50.840;4.382;2023-01-16T00:51:03;5.50;99.90
29207;DHT22;16247;50.840;4.382;2023-01-16T00:53:30;5.60;99.90
29207;DHT22;16247;50.840;4.382;2023-01-16T00:55:57;5.70;99.90
29207;DHT22;16247;50.840;4.382;2023-01-16T00:58:22;5.60;99.90
29207;DHT22;16247;50.840;4.382;2023-01-16T01:00:50;5.60;99.90
29207;DHT22;16247;50.840;4.382;2023-01-16T01:03:17;5.60;99.90
29207;DHT22;16247;50.840;4.382;2023-01-16T01:08:18;5.60;99.90
29207;DHT22;16247;50.840;4.382;2023-01-16T01:13:23;5.70;99.90
29207;DHT22;16247;50.840;4.382;2023-01-16T01:15:51;6.00;99.90
29207;DHT22;16247;50.840;4.382;2023-01-16T01:18:25;5.80;99.90
29207;DHT22;16247;50.840;4.382;2023-01-16T01:20:55;5.80;99.90
29207;DHT22;16247;50.840;4.382;2023-01-16T01:23:24;6.10;99.90
29207;DHT22;16247;50.840;4.382;2023-01-16T01:26:11;5.90;99.90
29207;DHT22;16247;50.840;4.382;2023-01-16T01:31:48;6.00;99.90
29207;DHT22;16247;50.840;4.382;2023-01-16T01:37:36;5.90;99.90
29207;DHT22;16247;50.840;4.382;2023-01-16T01:43:47;6.10;99.90
29207;DHT22;16247;50.840;4.382;2023-01-16T01:46:45;6.20;99.90
29207;DHT22;16247;50.840;4.382;2023-01-16T01:52:59;6.10;99.90
29207;DHT22;16247;50.840;4.382;2023-01-16T01:55:30;6.10;99.90
29207;DHT22;16247;50.840;4.382;2023-01-16T02:01:06;6.30;99.90
29207;DHT22;16247;50.840;4.382;2023-01-16T02:03:38;6.30;99.90
29207;DHT22;16247;50.840;4.382;2023-01-16T02:06:08;6.50;99.90
29207;DHT22;16247;50.840;4.382;2023-01-16T02:08:39;6.30;99.90
29207;DHT22;16247;50.840;4.382;2023-01-16T02:11:14;6.20;99.90
29207;DHT22;16247;50.840;4.382;2023-01-16T02:14:07;6.30;99.90
29207;DHT22;16247;50.840;4.382;2023-01-16T02:16:40;6.40;99.90
29207;DHT22;16247;50.840;4.382;2023-01-16T02:25:35;6.50;99.90
29207;DHT22;16247;50.840;4.382;2023-01-16T02:45:23;6.60;99.90
29207;DHT22;16247;50.840;4.382;2023-01-16T02:51:19;6.60;99.90
29207;DHT22;16247;50.840;4.382;2023-01-16T02:54:03;6.50;99.90
29207;DHT22;16247;50.840;4.382;2023-01-16T02:56:48;6.90;99.90
29207;DHT22;16247;50.840;4.382;2023-01-16T02:59:19;7.00;99.90
29207;DHT22;16247;50.840;4.382;2023-01-16T03:01:49;6.80;99.90
29207;DHT22;16247;50.840;4.382;2023-01-16T03:16:14;6.90;99.90
29207;DHT22;16247;50.840;4.382;2023-01-16T03:19:09;6.90;99.90
29207;DHT22;16247;50.840;4.382;2023-01-16T03:21:53;6.80;99.90
29207;DHT22;16247;50.840;4.382;2023-01-16T03:24:36;6.80;99.90
29207;DHT22;16247;50.840;4.382;2023-01-16T03:30:10;6.90;99.90
29207;DHT22;16247;50.840;4.382;2023-01-16T03:32:49;6.90;99.90
29207;DHT22;16247;50.840;4.382;2023-01-16T03:35:40;6.90;99.90
29207;DHT22;16247;50.840;4.382;2023-01-16T03:41:22;7.10;99.90
29207;DHT22;16247;50.840;4.382;2023-01-16T03:43:53;7.10;99.90
29207;DHT22;16247;50.840;4.382;2023-01-16T03:46:27;7.00;99.90
29207;DHT22;16247;50.840;4.382;2023-01-16T03:49:07;7.30;99.90
29207;DHT22;16247;50.840;4.382;2023-01-16T03:51:37;7.10;99.90
29207;DHT22;16247;50.840;4.382;2023-01-16T03:54:16;7.20;99.90
29207;DHT22;16247;50.840;4.382;2023-01-16T04:00:10;7.10;99.90
29207;DHT22;16247;50.840;4.382;2023-01-16T04:03:04;7.10;99.90
29207;DHT22;16247;50.840;4.382;2023-01-16T04:08:17;7.20;99.90
29207;DHT22;16247;50.840;4.382;2023-01-16T04:10:47;7.30;99.90
29207;DHT22;16247;50.840;4.382;2023-01-16T04:13:26;7.10;99.90
29207;DHT22;16247;50.840;4.382;2023-01-16T04:15:59;7.00;99.90
29207;DHT22;16247;50.840;4.382;2023-01-16T04:18:31;7.10;99.90
29207;DHT22;16247;50.840;4.382;2023-01-16T04:21:03;7.20;99.90
29207;DHT22;16247;50.840;4.382;2023-01-16T04:23:29;7.10;99.90
29207;DHT22;16247;50.840;4.382;2023-01-16T04:25:55;7.10;99.90
29207;DHT22;16247;50.840;4.382;2023-01-16T04:31:03;7.20;99.90
29207;DHT22;16247;50.840;4.382;2023-01-16T04:33:40;7.30;99.90
29207;DHT22;16247;50.840;4.382;2023-01-16T04:36:26;7.50;99.90
29207;DHT22;16247;50.840;4.382;2023-01-16T04:38:54;7.10;99.90
29207;DHT22;16247;50.840;4.382;2023-01-16T04:41:20;7.10;99.90
29207;DHT22;16247;50.840;4.382;2023-01-16T04:51:46;7.00;99.90
29207;DHT22;16247;50.840;4.382;2023-01-16T04:54:16;7.00;99.90
29207;DHT22;16247;50.840;4.382;2023-01-16T04:56:42;7.00;99.90
29207;DHT22;16247;50.840;4.382;2023-01-16T04:59:10;7.30;99.90
29207;DHT22;16247;50.840;4.382;2023-01-16T05:01:41;6.90;99.90
29207;DHT22;16247;50.840;4.382;2023-01-16T05:04:12;6.90;99.90
29207;DHT22;16247;50.840;4.382;2023-01-16T05:06:43;7.00;99.90
29207;DHT22;16247;50.840;4.382;2023-01-16T05:09:11;7.00;99.90
29207;DHT22;16247;50.840;4.382;2023-01-16T05:11:39;7.00;99.90
29207;DHT22;16247;50.840;4.382;2023-01-16T05:14:08;6.90;99.90
29207;DHT22;16247;50.840;4.382;2023-01-16T05:16:40;6.80;99.90
29207;DHT22;16247;50.840;4.382;2023-01-16T05:19:10;7.20;99.90
29207;DHT22;16247;50.840;4.382;2023-01-16T05:24:58;6.80;99.90
29207;DHT22;16247;50.840;4.382;2023-01-16T05:30:49;6.80;99.90
29207;DHT22;16247;50.840;4.382;2023-01-16T05:33:16;7.00;99.90
29207;DHT22;16247;50.840;4.382;2023-01-16T05:35:48;6.80;99.90
29207;DHT22;16247;50.840;4.382;2023-01-16T05:38:15;6.70;99.90
29207;DHT22;16247;50.840;4.382;2023-01-16T05:48:24;6.50;99.90
29207;DHT22;16247;50.840;4.382;2023-01-16T05:50:50;6.40;99.90
29207;DHT22;16247;50.840;4.382;2023-01-16T05:53:16;6.70;99.90
29207;DHT22;16247;50.840;4.382;2023-01-16T05:58:23;6.40;99.90
29207;DHT22;16247;50.840;4.382;2023-01-16T06:03:50;6.20;99.90
29207;DHT22;16247;50.840;4.382;2023-01-16T06:12:15;6.00;99.90
29207;DHT22;16247;50.840;4.382;2023-01-16T06:14:42;6.40;99.90
29207;DHT22;16247;50.840;4.382;2023-01-16T06:17:26;6.10;99.90
29207;DHT22;16247;50.840;4.382;2023-01-16T06:20:01;6.10;99.90
29207;DHT22;16247;50.840;4.382;2023-01-16T06:22:37;6.00;99.90
29207;DHT22;16247;50.840;4.382;2023-01-16T06:25:09;6.30;99.90
29207;DHT22;16247;50.840;4.382;2023-01-16T06:28:14;6.00;99.90
29207;DHT22;16247;50.840;4.382;2023-01-16T06:30:43;6.10;99.90
29207;DHT22;16247;50.840;4.382;2023-01-16T06:33:12;5.90;99.90
29207;DHT22;16247;50.840;4.382;2023-01-16T06:35:39;6.30;99.90
29207;DHT22;16247;50.840;4.382;2023-01-16T06:38:17;6.20;99.90
29207;DHT22;16247;50.840;4.382;2023-01-16T06:40:49;6.00;99.90
29207;DHT22;16247;50.840;4.382;2023-01-16T06:43:17;6.00;99.90
29207;DHT22;16247;50.840;4.382;2023-01-16T06:45:45;6.00;99.90
29207;DHT22;16247;50.840;4.382;2023-01-16T06:48:13;5.90;99.90
29207;DHT22;16247;50.840;4.382;2023-01-16T06:50:43;5.80;99.90
29207;DHT22;16247;50.840;4.382;2023-01-16T06:53:13;5.70;99.90
29207;DHT22;16247;50.840;4.382;2023-01-16T06:55:41;5.90;99.90
29207;DHT22;16247;50.840;4.382;2023-01-16T06:58:28;6.30;99.90
29207;DHT22;16247;50.840;4.382;2023-01-16T07:01:01;5.90;99.90
29207;DHT22;16247;50.840;4.382;2023-01-16T07:03:39;5.90;99.90
29207;DHT22;16247;50.840;4.382;2023-01-16T07:06:24;6.20;99.90
29207;DHT22;16247;50.840;4.382;2023-01-16T07:08:53;6.20;99.90
29207;DHT22;16247;50.840;4.382;2023-01-16T07:11:25;5.90;99.90
29207;DHT22;16247;50.840;4.382;2023-01-16T07:17:24;6.00;99.90
29207;DHT22;16247;50.840;4.382;2023-01-16T07:20:11;5.90;99.90
29207;DHT22;16247;50.840;4.382;2023-01-16T07:22:58;6.00;99.90
29207;DHT22;16247;50.840;4.382;2023-01-16T07:25:53;6.00;99.90
29207;DHT22;16247;50.840;4.382;2023-01-16T07:31:20;6.00;99.90
29207;DHT22;16247;50.840;4.382;2023-01-16T08:14:41;6.10;99.90
29207;DHT22;16247;50.840;4.382;2023-01-16T09:35:38;6.80;99.90
29207;DHT22;16247;50.840;4.382;2023-01-16T09:41:25;6.90;99.90
29207;DHT22;16247;50.840;4.382;2023-01-16T09:47:48;7.20;99.90
29207;DHT22;16247;50.840;4.382;2023-01-16T09:51:23;7.40;99.90
29207;DHT22;16247;50.840;4.382;2023-01-16T09:59:49;7.60;99.90
29207;DHT22;16247;50.840;4.382;2023-01-16T10:02:54;7.50;99.90
29207;DHT22;16247;50.840;4.382;2023-01-16T10:06:27;7.70;99.90
29207;DHT22;16247;50.840;4.382;2023-01-16T10:09:42;7.50;99.90
29207;DHT22;16247;50.840;4.382;2023-01-16T10:46:38;7.00;99.90
29207;DHT22;16247;50.840;4.382;2023-01-16T10:50:05;7.00;99.90
29207;DHT22;16247;50.840;4.382;2023-01-16T10:59:34;6.90;99.90
29207;DHT22;16247;50.840;4.382;2023-01-16T11:09:17;7.00;99.90
29207;DHT22;16247;50.840;4.382;2023-01-16T11:15:23;7.10;99.90
29207;DHT22;16247;50.840;4.382;2023-01-16T11:18:41;7.20;99.90
29207;DHT22;16247;50.840;4.382;2023-01-16T11:21:33;7.30;99.90
29207;DHT22;16247;50.840;4.382;2023-01-16T11:24:33;7.40;99.90
29207;DHT22;16247;50.840;4.382;2023-01-16T11:30:30;7.40;99.90
29207;DHT22;16247;50.840;4.382;2023-01-16T11:34:10;7.80;99.90
29207;DHT22;16247;50.840;4.382;2023-01-16T11:37:01;7.60;99.90
29207;DHT22;16247;50.840;4.382;2023-01-16T11:39:53;7.70;99.90
29207;DHT22;16247;50.840;4.382;2023-01-16T11:42:36;7.70;99.90
29207;DHT22;16247;50.840;4.382;2023-01-16T11:46:04;7.70;99.90
29207;DHT22;16247;50.840;4.382;2023-01-16T11:49:04;7.60;99.90
29207;DHT22;16247;50.840;4.382;2023-01-16T11:52:28;7.70;99.90
29207;DHT22;16247;50.840;4.382;2023-01-16T11:58:08;7.40;99.90
29207;DHT22;16247;50.840;4.382;2023-01-16T12:09:00;7.10;99.90
29207;DHT22;16247;50.840;4.382;2023-01-16T12:14:55;6.90;99.90
29207;DHT22;16247;50.840;4.382;2023-01-16T12:17:31;7.10;99.90
29207;DHT22;16247;50.840;4.382;2023-01-16T12:20:20;6.90;99.90
29207;DHT22;16247;50.840;4.382;2023-01-16T12:32:08;7.10;99.90
29207;DHT22;16247;50.840;4.382;2023-01-16T12:35:01;7.00;99.90
29207;DHT22;16247;50.840;4.382;2023-01-16T13:05:08;7.40;99.90
29207;DHT22;16247;50.840;4.382;2023-01-16T13:10:33;7.50;99.90
29207;DHT22;16247;50.840;4.382;2023-01-16T13:13:46;7.70;99.90
29207;DHT22;16247;50.840;4.382;2023-01-16T13:26:11;7.70;99.90
29207;DHT22;16247;50.840;4.382;2023-01-16T14:03:18;7.40;99.90
29207;DHT22;16247;50.840;4.382;2023-01-16T14:06:46;7.50;99.90
29207;DHT22;16247;50.840;4.382;2023-01-16T14:25:16;7.40;99.90
29207;DHT22;16247;50.840;4.382;2023-01-16T14:28:15;7.40;99.90
29207;DHT22;16247;50.840;4.382;2023-01-16T14:31:01;7.30;99.90
29207;DHT22;16247;50.840;4.382;2023-01-16T14:33:52;7.50;99.90
29207;DHT22;16247;50.840;4.382;2023-01-16T14:37:15;7.30;99.90
29207;DHT22;16247;50.840;4.382;2023-01-16T14:40:26;7.40;99.90
29207;DHT22;16247;50.840;4.382;2023-01-16T14:43:30;7.40;99.90
29207;DHT22;16247;50.840;4.382;2023-01-16T14:46:30;7.20;99.90
29207;DHT22;16247;50.840;4.382;2023-01-16T14:50:39;7.20;99.90
29207;DHT22;16247;50.840;4.382;2023-01-16T14:52:50;6.90;99.90
29207;DHT22;16247;50.840;4.382;2023-01-16T14:55:50;6.90;99.90
29207;DHT22;16247;50.840;4.382;2023-01-16T14:59:10;6.80;99.90
29207;DHT22;16247;50.840;4.382;2023-01-16T15:05:32;6.60;99.90
29207;DHT22;16247;50.840;4.382;2023-01-16T15:08:44;6.60;99.90
29207;DHT22;16247;50.840;4.382;2023-01-16T15:12:20;6.50;99.90
29207;DHT22;16247;50.840;4.382;2023-01-16T15:15:29;6.50;99.90
29207;DHT22;16247;50.840;4.382;2023-01-16T15:21:35;6.30;99.90
29207;DHT22;16247;50.840;4.382;2023-01-16T15:24:24;6.40;99.90
29207;DHT22;16247;50.840;4.382;2023-01-16T15:32:15;6.70;99.90
29207;DHT22;16247;50.840;4.382;2023-01-16T15:34:49;6.60;99.90
29207;DHT22;16247;50.840;4.382;2023-01-16T15:37:31;6.50;99.90
29207;DHT22;16247;50.840;4.382;2023-01-16T15:39:58;6.50;99.90
29207;DHT22;16247;50.840;4.382;2023-01-16T15:42:30;6.10;99.90
29207;DHT22;16247;50.840;4.382;2023-01-16T15:45:26;6.30;99.90
29207;DHT22;16247;50.840;4.382;2023-01-16T15:51:23;5.90;99.90
29207;DHT22;16247;50.840;4.382;2023-01-16T15:53:51;6.10;99.90
29207;DHT22;16247;50.840;4.382;2023-01-16T15:56:47;6.20;99.90
29207;DHT22;16247;50.840;4.382;2023-01-16T15:59:31;6.00;99.90
29207;DHT22;16247;50.840;4.382;2023-01-16T16:02:25;5.90;99.90
29207;DHT22;16247;50.840;4.382;2023-01-16T16:07:31;5.80;99.90
29207;DHT22;16247;50.840;4.382;2023-01-16T16:10:04;5.80;99.90
29207;DHT22;16247;50.840;4.382;2023-01-16T16:12:33;5.80;99.90
29207;DHT22;16247;50.840;4.382;2023-01-16T16:15:23;5.70;99.90
29207;DHT22;16247;50.840;4.382;2023-01-16T16:18:17;5.80;99.90
29207;DHT22;16247;50.840;4.382;2023-01-16T16:21:12;5.70;99.90
29207;DHT22;16247;50.840;4.382;2023-01-16T16:23:39;5.60;99.90
29207;DHT22;16247;50.840;4.382;2023-01-16T16:26:12;5.60;99.90
29207;DHT22;16247;50.840;4.382;2023-01-16T16:28:41;5.60;99.90
29207;DHT22;16247;50.840;4.382;2023-01-16T16:31:26;5.60;99.90
29207;DHT22;16247;50.840;4.382;2023-01-16T16:34:03;5.70;99.90
29207;DHT22;16247;50.840;4.382;2023-01-16T16:36:54;5.70;99.90
29207;DHT22;16247;50.840;4.382;2023-01-16T16:39:47;5.90;99.90
29207;DHT22;16247;50.840;4.382;2023-01-16T16:45:22;6.00;99.90
29207;DHT22;16247;50.840;4.382;2023-01-16T16:48:21;5.80;99.90
29207;DHT22;16247;50.840;4.382;2023-01-16T16:54:15;5.80;99.90
29207;DHT22;16247;50.840;4.382;2023-01-16T16:56:56;5.70;99.90
29207;DHT22;16247;50.840;4.382;2023-01-16T16:59:32;5.90;99.90
29207;DHT22;16247;50.840;4.382;2023-01-16T17:02:28;5.90;99.90
29207;DHT22;16247;50.840;4.382;2023-01-16T17:04:55;5.70;99.90
29207;DHT22;16247;50.840;4.382;2023-01-16T17:10:33;5.70;99.90
29207;DHT22;16247;50.840;4.382;2023-01-16T17:18:26;5.60;99.90
29207;DHT22;16247;50.840;4.382;2023-01-16T17:20:57;5.50;99.90
29207;DHT22;16247;50.840;4.382;2023-01-16T17:26:25;5.40;99.90
29207;DHT22;16247;50.840;4.382;2023-01-16T17:34:19;5.40;99.90
29207;DHT22;16247;50.840;4.382;2023-01-16T17:39:27;5.40;99.90
29207;DHT22;16247;50.840;4.382;2023-01-16T17:42:04;5.30;99.90
29207;DHT22;16247;50.840;4.382;2023-01-16T17:44:36;5.20;99.90
29207;DHT22;16247;50.840;4.382;2023-01-16T17:47:32;5.40;99.90
29207;DHT22;16247;50.840;4.382;2023-01-16T17:52:39;5.00;99.90
29207;DHT22;16247;50.840;4.382;2023-01-16T18:03:16;4.80;99.90
29207;DHT22;16247;50.840;4.382;2023-01-16T18:06:13;4.80;99.90
29207;DHT22;16247;50.840;4.382;2023-01-16T18:09:03;4.60;99.90
29207;DHT22;16247;50.840;4.382;2023-01-16T18:11:43;4.70;99.90
29207;DHT22;16247;50.840;4.382;2023-01-16T18:14:43;4.70;99.90
29207;DHT22;16247;50.840;4.382;2023-01-16T18:17:32;4.70;99.90
29207;DHT22;16247;50.840;4.382;2023-01-16T18:20:28;4.40;99.90
29207;DHT22;16247;50.840;4.382;2023-01-16T18:23:22;4.60;99.90
29207;DHT22;16247;50.840;4.382;2023-01-16T18:26:04;4.50;99.90
29207;DHT22;16247;50.840;4.382;2023-01-16T18:29:02;4.50;99.90
29207;DHT22;16247;50.840;4.382;2023-01-16T18:32:03;4.60;99.90
29207;DHT22;16247;50.840;4.382;2023-01-16T18:34:47;4.60;99.90
29207;DHT22;16247;50.840;4.382;2023-01-16T18:37:20;4.40;99.90
29207;DHT22;16247;50.840;4.382;2023-01-16T18:39:49;5.00;99.90
29207;DHT22;16247;50.840;4.382;2023-01-16T18:42:33;4.90;99.90
29207;DHT22;16247;50.840;4.382;2023-01-16T18:45:24;4.90;99.90
29207;DHT22;16247;50.840;4.382;2023-01-16T18:48:12;5.00;99.90
29207;DHT22;16247;50.840;4.382;2023-01-16T18:59:32;5.40;99.90
29207;DHT22;16247;50.840;4.382;2023-01-16T19:04:52;5.40;99.90
29207;DHT22;16247;50.840;4.382;2023-01-16T19:07:45;5.40;99.90
29207;DHT22;16247;50.840;4.382;2023-01-16T19:10:21;5.40;99.90
29207;DHT22;16247;50.840;4.382;2023-01-16T19:12:50;5.20;99.90
29207;DHT22;16247;50.840;4.382;2023-01-16T19:15:18;5.30;99.90
29207;DHT22;16247;50.840;4.382;2023-01-16T19:17:54;5.60;99.90
29207;DHT22;16247;50.840;4.382;2023-01-16T19:20:22;5.40;99.90
29207;DHT22;16247;50.840;4.382;2023-01-16T19:22:51;5.40;99.90
29207;DHT22;16247;50.840;4.382;2023-01-16T19:25:22;5.40;99.90
29207;DHT22;16247;50.840;4.382;2023-01-16T19:27:49;5.40;99.90
29207;DHT22;16247;50.840;4.382;2023-01-16T19:30:20;5.40;99.90
29207;DHT22;16247;50.840;4.382;2023-01-16T19:32:50;5.40;99.90
29207;DHT22;16247;50.840;4.382;2023-01-16T19:35:36;5.50;99.90
29207;DHT22;16247;50.840;4.382;2023-01-16T19:38:02;5.50;99.90
29207;DHT22;16247;50.840;4.382;2023-01-16T19:40:30;5.60;99.90
29207;DHT22;16247;50.840;4.382;2023-01-16T19:42:56;5.60;99.90
29207;DHT22;16247;50.840;4.382;2023-01-16T19:45:44;5.50;99.90
29207;DHT22;16247;50.840;4.382;2023-01-16T19:48:43;5.90;99.90
29207;DHT22;16247;50.840;4.382;2023-01-16T19:51:09;5.50;99.90
29207;DHT22;16247;50.840;4.382;2023-01-16T19:53:37;5.70;99.90
29207;DHT22;16247;50.840;4.382;2023-01-16T19:56:07;5.70;99.90
29207;DHT22;16247;50.840;4.382;2023-01-16T19:58:34;5.30;99.90
29207;DHT22;16247;50.840;4.382;2023-01-16T20:01:13;5.50;99.90
29207;DHT22;16247;50.840;4.382;2023-01-16T20:03:44;5.50;99.90
29207;DHT22;16247;50.840;4.382;2023-01-16T20:06:11;5.60;99.90
29207;DHT22;16247;50.840;4.382;2023-01-16T20:08:50;5.80;99.90
29207;DHT22;16247;50.840;4.382;2023-01-16T20:11:19;5.50;99.90
29207;DHT22;16247;50.840;4.382;2023-01-16T20:13:48;5.40;99.90
29207;DHT22;16247;50.840;4.382;2023-01-16T20:16:22;5.20;99.90
29207;DHT22;16247;50.840;4.382;2023-01-16T20:18:55;5.00;99.90
29207;DHT22;16247;50.840;4.382;2023-01-16T20:21:21;4.80;99.90
29207;DHT22;16247;50.840;4.382;2023-01-16T20:24:04;4.90;99.90
29207;DHT22;16247;50.840;4.382;2023-01-16T20:27:03;4.70;99.90
29207;DHT22;16247;50.840;4.382;2023-01-16T20:29:34;4.70;99.90
29207;DHT22;16247;50.840;4.382;2023-01-16T20:32:23;4.70;99.90
29207;DHT22;16247;50.840;4.382;2023-01-16T20:34:51;4.80;99.90
29207;DHT22;16247;50.840;4.382;2023-01-16T20:37:22;5.20;99.90
29207;DHT22;16247;50.840;4.382;2023-01-16T20:39:50;5.10;99.90
29207;DHT22;16247;50.840;4.382;2023-01-16T20:52:35;4.80;99.90
29207;DHT22;16247;50.840;4.382;2023-01-16T20:55:01;4.80;99.90
29207;DHT22;16247;50.840;4.382;2023-01-16T20:57:27;5.00;99.90
29207;DHT22;16247;50.840;4.382;2023-01-16T20:59:56;5.00;99.90
29207;DHT22;16247;50.840;4.382;2023-01-16T21:02:23;4.90;99.90
29207;DHT22;16247;50.840;4.382;2023-01-16T21:04:49;5.00;99.90
29207;DHT22;16247;50.840;4.382;2023-01-16T21:07:17;5.20;99.90
29207;DHT22;16247;50.840;4.382;2023-01-16T21:09:44;5.20;99.90
29207;DHT22;16247;50.840;4.382;2023-01-16T21:12:10;5.10;99.90
29207;DHT22;16247;50.840;4.382;2023-01-16T21:14:54;4.90;99.90
29207;DHT22;16247;50.840;4.382;2023-01-16T21:17:23;4.90;99.90
29207;DHT22;16247;50.840;4.382;2023-01-16T21:20:10;5.20;99.90
29207;DHT22;16247;50.840;4.382;2023-01-16T21:22:54;5.10;99.90
29207;DHT22;16247;50.840;4.382;2023-01-16T21:25:21;5.30;99.90
29207;DHT22;16247;50.840;4.382;2023-01-16T21:27:49;5.10;99.90
29207;DHT22;16247;50.840;4.382;2023-01-16T21:30:19;5.40;99.90
29207;DHT22;16247;50.840;4.382;2023-01-16T21:32:48;5.10;99.90
29207;DHT22;16247;50.840;4.382;2023-01-16T21:35:14;5.20;99.90
29207;DHT22;16247;50.840;4.382;2023-01-16T21:37:40;5.10;99.90
29207;DHT22;16247;50.840;4.382;2023-01-16T21:40:10;5.40;99.90
29207;DHT22;16247;50.840;4.382;2023-01-16T21:42:36;5.20;99.90
29207;DHT22;16247;50.840;4.382;2023-01-16T21:45:20;5.00;99.90
29207;DHT22;16247;50.840;4.382;2023-01-16T21:48:15;5.00;99.90
29207;DHT22;16247;50.840;4.382;2023-01-16T21:50:41;4.90;99.90
29207;DHT22;16247;50.840;4.382;2023-01-16T21:53:14;5.00;99.90
29207;DHT22;16247;50.840;4.382;2023-01-16T21:55:43;4.80;99.90
29207;DHT22;16247;50.840;4.382;2023-01-16T21:58:09;5.00;99.90
29207;DHT22;16247;50.840;4.382;2023-01-16T22:00:49;4.90;99.90
29207;DHT22;16247;50.840;4.382;2023-01-16T22:03:20;5.00;99.90
29207;DHT22;16247;50.840;4.382;2023-01-16T22:05:49;5.30;99.90
29207;DHT22;16247;50.840;4.382;2023-01-16T22:08:17;5.10;99.90
29207;DHT22;16247;50.840;4.382;2023-01-16T22:10:43;5.10;99.90
29207;DHT22;16247;50.840;4.382;2023-01-16T22:13:32;5.10;99.90
29207;DHT22;16247;50.840;4.382;2023-01-16T22:16:18;5.20;99.90
29207;DHT22;16247;50.840;4.382;2023-01-16T22:19:04;4.80;99.90
29207;DHT22;16247;50.840;4.382;2023-01-16T22:21:50;5.00;99.90
29207;DHT22;16247;50.840;4.382;2023-01-16T22:24:29;4.80;99.90
29207;DHT22;16247;50.840;4.382;2023-01-16T22:26:57;5.00;99.90
29207;DHT22;16247;50.840;4.382;2023-01-16T22:29:24;4.90;99.90
29207;DHT22;16247;50.840;4.382;2023-01-16T22:31:50;5.00;99.90
29207;DHT22;16247;50.840;4.382;2023-01-16T22:34:17;5.10;99.90
29207;DHT22;16247;50.840;4.382;2023-01-16T22:36:43;4.60;99.90
29207;DHT22;16247;50.840;4.382;2023-01-16T22:39:12;4.60;99.90
29207;DHT22;16247;50.840;4.382;2023-01-16T22:41:42;4.80;99.90
29207;DHT22;16247;50.840;4.382;2023-01-16T22:44:12;4.80;99.90
29207;DHT22;16247;50.840;4.382;2023-01-16T22:47:03;4.80;99.90
29207;DHT22;16247;50.840;4.382;2023-01-16T22:49:33;4.80;99.90
29207;DHT22;16247;50.840;4.382;2023-01-16T22:51:59;4.60;99.90
29207;DHT22;16247;50.840;4.382;2023-01-16T22:54:26;4.90;99.90
29207;DHT22;16247;50.840;4.382;2023-01-16T22:56:53;4.50;99.90
29207;DHT22;16247;50.840;4.382;2023-01-16T22:59:19;4.40;99.90
29207;DHT22;16247;50.840;4.382;2023-01-16T23:01:44;4.40;99.90
29207;DHT22;16247;50.840;4.382;2023-01-16T23:04:11;4.40;99.90
29207;DHT22;16247;50.840;4.382;2023-01-16T23:06:39;4.30;99.90
29207;DHT22;16247;50.840;4.382;2023-01-16T23:09:05;4.30;99.90
29207;DHT22;16247;50.840;4.382;2023-01-16T23:11:36;4.30;99.90
29207;DHT22;16247;50.840;4.382;2023-01-16T23:14:08;4.60;99.90
29207;DHT22;16247;50.840;4.382;2023-01-16T23:16:38;4.60;99.90
29207;DHT22;16247;50.840;4.382;2023-01-16T23:19:06;4.30;99.90
29207;DHT22;16247;50.840;4.382;2023-01-16T23:21:33;4.50;99.90
29207;DHT22;16247;50.840;4.382;2023-01-16T23:24:01;4.20;99.90
29207;DHT22;16247;50.840;4.382;2023-01-16T23:26:34;4.20;99.90
29207;DHT22;16247;50.840;4.382;2023-01-16T23:29:02;4.30;99.90
29207;DHT22;16247;50.840;4.382;2023-01-16T23:31:37;4.10;99.90
29207;DHT22;16247;50.840;4.382;2023-01-16T23:34:04;4.20;99.90
29207;DHT22;16247;50.840;4.382;2023-01-16T23:36:32;4.20;99.90
29207;DHT22;16247;50.840;4.382;2023-01-16T23:39:27;4.50;99.90
29207;DHT22;16247;50.840;4.382;2023-01-16T23:42:04;4.30;99.90
29207;DHT22;16247;50.840;4.382;2023-01-16T23:48:11;4.20;99.90
29207;DHT22;16247;50.840;4.382;2023-01-16T23:51:12;4.40;99.90
29207;DHT22;16247;50.840;4.382;2023-01-16T23:53:55;4.20;99.90
29207;DHT22;16247;50.840;4.382;2023-01-16T23:56:22;4.10;99.90
29207;DHT22;16247;50.840;4.382;2023-01-16T23:58:49;4.30;99.90
